Time;durP1;ratioP1;P1;durP2;ratioP2;P2;SDS_P1;SDS_P2;PMS_P1;PMS_P2;Temp;Humidity;BMP_temperature;BMP_pressure;BME280_temperature;BME280_humidity;BME280_pressure;Samples;Min_cycle;Max_cycle;Signal;HPM_P1;HPM_P2
2023/06/27 00:00:20;;;;;;;2.83;1.30;;;20.30;92.00;;;;;;4998658;28;20107;-72
2023/06/27 00:02:48;;;;;;;2.33;1.38;;;20.20;92.10;;;;;;4998567;28;20026;-72
2023/06/27 00:05:14;;;;;;;3.78;1.10;;;20.30;92.10;;;;;;4998503;28;20065;-71
2023/06/27 00:07:44;;;;;;;2.30;1.23;;;20.20;92.40;;;;;;4998283;28;20050;-71
2023/06/27 00:10:10;;;;;;;1.73;1.02;;;20.20;92.30;;;;;;4998908;28;20027;-71
2023/06/27 00:12:36;;;;;;;3.10;1.10;;;20.20;92.50;;;;;;4999441;28;20082;-71
2023/06/27 00:15:05;;;;;;;5.30;1.00;;;20.20;92.60;;;;;;4998672;28;20030;-72
2023/06/27 00:17:33;;;;;;;1.23;0.85;;;20.20;92.70;;;;;;4998512;28;20031;-72
2023/06/27 00:20:00;;;;;;;1.38;0.85;;;20.00;92.90;;;;;;4999477;28;20025;-72
2023/06/27 00:22:26;;;;;;;3.28;1.58;;;20.00;93.00;;;;;;4999013;28;20022;-72
2023/06/27 00:24:52;;;;;;;3.80;1.08;;;20.00;93.00;;;;;;4998604;28;20033;-72
2023/06/27 00:27:18;;;;;;;6.25;1.35;;;20.00;93.10;;;;;;4998439;28;20113;-72
2023/06/27 00:29:43;;;;;;;3.42;1.00;;;19.90;93.30;;;;;;4998368;28;20050;-71
2023/06/27 00:32:09;;;;;;;1.77;1.00;;;19.90;93.60;;;;;;4998318;28;20018;-71
2023/06/27 00:34:35;;;;;;;2.78;1.00;;;20.00;93.20;;;;;;4997990;28;20022;-71
2023/06/27 00:37:00;;;;;;;3.70;1.30;;;20.00;93.40;;;;;;4998409;28;20101;-71
2023/06/27 00:39:26;;;;;;;4.78;1.58;;;19.90;93.70;;;;;;4998288;28;20026;-71
2023/06/27 00:41:52;;;;;;;6.55;1.05;;;19.90;93.80;;;;;;4997863;28;20030;-72
2023/06/27 00:44:18;;;;;;;2.38;1.10;;;19.80;93.90;;;;;;4998991;28;20026;-72
2023/06/27 00:46:50;;;;;;;5.80;1.35;;;19.70;94.70;;;;;;4997995;28;20053;-72
2023/06/27 00:49:17;;;;;;;2.92;1.10;;;19.60;94.40;;;;;;4997868;28;20058;-72
2023/06/27 00:51:46;;;;;;;3.83;1.17;;;19.60;94.50;;;;;;4997822;28;20022;-72
2023/06/27 00:54:12;;;;;;;3.70;1.15;;;19.60;94.70;;;;;;4998560;28;20073;-72
2023/06/27 00:56:38;;;;;;;2.97;1.45;;;19.60;94.70;;;;;;4998048;28;20033;-72
2023/06/27 00:59:05;;;;;;;3.78;1.48;;;19.70;94.80;;;;;;4997574;28;20030;-72
2023/06/27 01:01:31;;;;;;;3.80;1.23;;;19.60;94.90;;;;;;4998406;28;20037;-72
2023/06/27 01:03:57;;;;;;;2.60;1.13;;;19.30;96.30;;;;;;4997410;28;20031;-72
2023/06/27 01:06:33;;;;;;;1.50;1.10;;;19.10;97.00;;;;;;4998512;28;20029;-72
2023/06/27 01:09:28;;;;;;;4.13;1.23;;;19.00;97.80;;;;;;4998607;28;20026;-72
2023/06/27 01:12:03;;;;;;;4.55;1.67;;;18.90;98.40;;;;;;4997384;28;20026;-72
2023/06/27 01:14:31;;;;;;;1.70;1.10;;;18.80;99.20;;;;;;4997524;28;20026;-72
2023/06/27 01:16:58;;;;;;;4.60;1.50;;;18.70;99.90;;;;;;4997690;28;20029;-71
2023/06/27 01:19:29;;;;;;;2.70;1.50;;;18.70;99.90;;;;;;4997321;28;20030;-71
2023/06/27 01:22:02;;;;;;;3.22;1.67;;;18.70;99.90;;;;;;4997157;28;20026;-71
2023/06/27 01:24:29;;;;;;;2.42;1.30;;;18.70;99.90;;;;;;4997877;28;20030;-71
2023/06/27 01:26:54;;;;;;;3.55;0.98;;;18.70;99.90;;;;;;4997573;28;20030;-71
2023/06/27 01:29:20;;;;;;;1.70;1.00;;;18.80;99.90;;;;;;4997288;28;20102;-71
2023/06/27 01:31:52;;;;;;;2.97;1.23;;;18.90;99.90;;;;;;4997377;28;20057;-71
2023/06/27 01:34:23;;;;;;;2.45;1.23;;;19.10;99.90;;;;;;4998186;28;20042;-71
2023/06/27 01:37:08;;;;;;;1.47;0.90;;;19.10;99.90;;;;;;4997846;28;20023;-71
2023/06/27 01:39:48;;;;;;;2.08;0.82;;;19.10;99.90;;;;;;4996975;28;20125;-71
2023/06/27 01:42:26;;;;;;;2.97;1.40;;;19.10;99.90;;;;;;4996845;28;20023;-71
2023/06/27 01:44:53;;;;;;;2.30;0.90;;;19.00;99.90;;;;;;4996932;28;20026;-71
2023/06/27 01:47:21;;;;;;;8.27;1.33;;;18.80;99.90;;;;;;4997677;28;20057;-72
2023/06/27 01:49:47;;;;;;;4.07;1.20;;;18.70;99.90;;;;;;4997747;28;20030;-72
2023/06/27 01:52:13;;;;;;;2.78;1.52;;;18.50;99.90;;;;;;4996683;28;20026;-72
2023/06/27 01:54:43;;;;;;;5.35;1.92;;;18.40;99.90;;;;;;4997271;28;20044;-72
2023/06/27 01:57:10;;;;;;;3.58;1.50;;;18.40;99.90;;;;;;4996554;28;20053;-72
2023/06/27 01:59:35;;;;;;;4.82;1.60;;;18.40;99.90;;;;;;4996638;28;20026;-72
2023/06/27 02:02:01;;;;;;;2.17;1.40;;;18.40;99.90;;;;;;4996510;28;20030;-72
2023/06/27 02:04:27;;;;;;;3.80;1.60;;;18.40;99.90;;;;;;4997593;28;20022;-72
2023/06/27 02:06:52;;;;;;;5.15;1.30;;;18.40;99.90;;;;;;4997348;28;20033;-71
2023/06/27 02:09:18;;;;;;;4.55;1.20;;;18.30;99.90;;;;;;4996417;28;20134;-71
2023/06/27 02:11:45;;;;;;;9.50;1.30;;;18.30;99.90;;;;;;4996914;28;20062;-71
2023/06/27 02:14:11;;;;;;;3.08;1.30;;;18.20;99.90;;;;;;4997562;28;20025;-71
2023/06/27 02:16:37;;;;;;;2.70;1.27;;;18.20;99.90;;;;;;4997412;28;20026;-71
2023/06/27 02:19:02;;;;;;;2.28;1.48;;;17.90;99.90;;;;;;4996699;28;20030;-71
2023/06/27 02:21:28;;;;;;;5.68;1.80;;;18.00;99.90;;;;;;4996514;28;20035;-71
2023/06/27 02:23:53;;;;;;;7.03;1.55;;;18.10;99.90;;;;;;4996566;28;20036;-72
2023/06/27 02:26:19;;;;;;;3.08;1.63;;;18.10;99.90;;;;;;4997560;28;20027;-72
2023/06/27 02:28:44;;;;;;;3.75;1.30;;;18.00;99.90;;;;;;4997248;28;20114;-72
2023/06/27 02:31:10;;;;;;;3.90;1.42;;;18.00;99.90;;;;;;4998710;28;20117;-72
2023/06/27 02:33:35;;;;;;;3.00;1.33;;;17.90;99.90;;;;;;5000275;28;20030;-72
2023/06/27 02:36:01;;;;;;;3.10;1.30;;;17.90;99.90;;;;;;5000504;28;20023;-72
2023/06/27 02:38:27;;;;;;;4.43;1.38;;;17.90;99.90;;;;;;5000403;28;20023;-72
2023/06/27 02:40:52;;;;;;;4.97;1.58;;;17.90;99.90;;;;;;5000287;28;20030;-72
2023/06/27 02:43:18;;;;;;;4.95;1.60;;;17.90;99.90;;;;;;5001078;28;20022;-72
2023/06/27 02:45:44;;;;;;;2.75;1.40;;;17.90;99.90;;;;;;5000147;28;20125;-72
2023/06/27 02:48:09;;;;;;;1.38;1.10;;;17.80;99.90;;;;;;4999926;28;20053;-72
2023/06/27 02:50:34;;;;;;;3.85;1.40;;;17.80;99.90;;;;;;5000999;28;20049;-72
2023/06/27 02:53:00;;;;;;;5.53;1.35;;;17.70;99.90;;;;;;5000145;28;20022;-72
2023/06/27 02:55:26;;;;;;;1.95;1.13;;;17.70;99.90;;;;;;5000672;28;20117;-72
2023/06/27 02:57:51;;;;;;;6.30;1.40;;;17.70;99.90;;;;;;5000084;28;20022;-72
2023/06/27 03:00:17;;;;;;;4.05;1.60;;;17.60;99.90;;;;;;5000028;28;20065;-72
2023/06/27 03:02:42;;;;;;;4.80;1.38;;;17.60;99.90;;;;;;5000000;28;20027;-72
2023/06/27 03:05:08;;;;;;;3.17;1.63;;;17.60;99.90;;;;;;5001214;28;20083;-72
2023/06/27 03:07:34;;;;;;;3.60;1.50;;;17.60;99.90;;;;;;5000427;28;20030;-71
2023/06/27 03:09:59;;;;;;;4.10;1.50;;;17.70;99.90;;;;;;4999970;28;20090;-71
2023/06/27 03:12:25;;;;;;;4.30;1.42;;;17.60;99.90;;;;;;4999932;28;20095;-71
2023/06/27 03:14:50;;;;;;;1.88;1.17;;;17.60;99.90;;;;;;4999461;28;20025;-71
2023/06/27 03:17:16;;;;;;;4.18;1.50;;;17.50;99.90;;;;;;4999945;28;20037;-71
2023/06/27 03:19:41;;;;;;;2.30;1.60;;;17.50;99.90;;;;;;4999843;28;20027;-71
2023/06/27 03:22:07;;;;;;;4.13;1.27;;;17.50;99.90;;;;;;5000308;28;20026;-71
2023/06/27 03:24:32;;;;;;;1.48;1.17;;;17.50;99.90;;;;;;5000310;28;20018;-71
2023/06/27 03:26:58;;;;;;;5.03;1.80;;;17.50;99.90;;;;;;4999673;28;20025;-71
2023/06/27 03:29:24;;;;;;;2.20;1.15;;;17.40;99.90;;;;;;5000401;28;20080;-72
2023/06/27 03:31:49;;;;;;;4.88;1.48;;;17.30;99.90;;;;;;4999250;28;20026;-72
2023/06/27 03:34:15;;;;;;;3.50;1.38;;;17.30;99.90;;;;;;5000125;28;20040;-72
2023/06/27 03:36:40;;;;;;;4.03;1.67;;;17.30;99.90;;;;;;4999092;28;20019;-72
2023/06/27 03:39:06;;;;;;;3.58;1.70;;;17.30;99.90;;;;;;4999774;28;20022;-72
2023/06/27 03:41:32;;;;;;;5.05;1.50;;;17.30;99.90;;;;;;4999018;28;20026;-72
2023/06/27 03:43:57;;;;;;;3.28;1.42;;;17.20;99.90;;;;;;4998859;28;20034;-72
2023/06/27 03:46:24;;;;;;;4.18;1.23;;;17.10;99.90;;;;;;5000507;28;20113;-72
2023/06/27 03:48:54;;;;;;;5.82;1.17;;;17.00;99.90;;;;;;4998722;28;20118;-72
2023/06/27 03:51:19;;;;;;;6.53;1.52;;;17.00;99.90;;;;;;5000064;28;20019;-72
2023/06/27 03:53:45;;;;;;;2.67;1.30;;;17.10;99.90;;;;;;4999819;28;20034;-72
2023/06/27 03:56:11;;;;;;;7.90;1.52;;;17.30;99.90;;;;;;4999457;28;20025;-72
2023/06/27 03:58:36;;;;;;;2.83;1.70;;;17.30;99.90;;;;;;4998915;28;20090;-72
2023/06/27 04:01:03;;;;;;;4.18;1.30;;;17.30;99.90;;;;;;4999163;28;20026;-72
2023/06/27 04:03:28;;;;;;;6.53;1.52;;;17.40;99.90;;;;;;4999506;28;20041;-72
2023/06/27 04:05:54;;;;;;;3.63;1.67;;;17.30;99.90;;;;;;4998730;28;20026;-72
2023/06/27 04:08:19;;;;;;;2.83;1.75;;;17.20;99.90;;;;;;4998473;28;20117;-72
2023/06/27 04:10:45;;;;;;;3.13;1.42;;;17.20;99.90;;;;;;4998917;28;20070;-72
2023/06/27 04:13:10;;;;;;;3.80;1.90;;;17.30;99.90;;;;;;4998429;28;20014;-71
2023/06/27 04:15:39;;;;;;;4.07;1.40;;;17.30;99.90;;;;;;4999181;28;20026;-72
2023/06/27 04:18:05;;;;;;;7.70;1.70;;;17.40;99.90;;;;;;4998452;28;20026;-72
2023/06/27 04:20:31;;;;;;;3.22;1.70;;;17.40;99.90;;;;;;4998731;28;20030;-72
2023/06/27 04:22:56;;;;;;;4.75;1.70;;;17.40;99.90;;;;;;4999378;28;20080;-72
2023/06/27 04:25:22;;;;;;;3.20;1.55;;;17.50;99.90;;;;;;4998639;28;20030;-71
2023/06/27 04:27:47;;;;;;;3.10;1.33;;;17.20;99.90;;;;;;4998211;28;20037;-72
2023/06/27 04:30:13;;;;;;;3.65;1.80;;;17.10;99.90;;;;;;4998810;28;20026;-72
2023/06/27 04:32:39;;;;;;;4.93;1.58;;;17.20;99.90;;;;;;5020961;23;20069;-70
2023/06/27 04:35:05;;;;;;;4.05;1.65;;;17.10;99.90;;;;;;4998350;28;20109;-70
2023/06/27 04:37:30;;;;;;;4.30;1.70;;;17.10;99.90;;;;;;4998785;28;20023;-71
2023/06/27 04:39:56;;;;;;;3.25;1.85;;;17.10;99.90;;;;;;4998804;28;20022;-71
2023/06/27 04:42:21;;;;;;;1.45;1.27;;;17.20;99.90;;;;;;4998786;28;20045;-70
2023/06/27 04:44:47;;;;;;;3.83;1.40;;;17.20;99.90;;;;;;4998999;28;20026;-71
2023/06/27 04:47:12;;;;;;;3.97;1.45;;;17.30;99.90;;;;;;4997809;28;20026;-70
2023/06/27 04:49:38;;;;;;;5.95;1.67;;;17.60;99.90;;;;;;4997682;28;20109;-70
2023/06/27 04:52:04;;;;;;;2.88;1.40;;;17.70;99.90;;;;;;4997808;28;20018;-70
2023/06/27 04:54:29;;;;;;;2.78;1.50;;;17.90;99.90;;;;;;4996925;28;20018;-71
2023/06/27 04:56:55;;;;;;;4.28;1.83;;;18.10;99.90;;;;;;4997728;28;20022;-71
2023/06/27 04:59:20;;;;;;;4.85;1.80;;;18.40;99.90;;;;;;4997750;28;20029;-71
2023/06/27 05:01:46;;;;;;;2.60;1.40;;;18.50;99.90;;;;;;4997462;28;20022;-70
2023/06/27 05:04:12;;;;;;;3.20;1.38;;;18.50;99.90;;;;;;4997336;28;20029;-69
2023/06/27 05:06:37;;;;;;;4.50;1.88;;;18.60;99.90;;;;;;4997299;28;20177;-70
2023/06/27 05:09:03;;;;;;;4.75;1.50;;;18.50;99.90;;;;;;4997084;28;20022;-71
2023/06/27 05:11:30;;;;;;;3.60;1.33;;;18.50;99.90;;;;;;4998297;28;20072;-70
2023/06/27 05:13:56;;;;;;;5.20;1.65;;;18.60;99.90;;;;;;4997489;28;20088;-69
2023/06/27 05:16:22;;;;;;;2.10;1.58;;;18.70;99.90;;;;;;4998292;28;20022;-70
2023/06/27 05:18:48;;;;;;;2.72;1.50;;;18.70;99.90;;;;;;4998289;28;20145;-70
2023/06/27 05:21:13;;;;;;;4.43;1.20;;;18.50;99.90;;;;;;4997413;28;20101;-68
2023/06/27 05:23:39;;;;;;;7.18;1.83;;;18.50;99.90;;;;;;4997173;28;20022;-70
2023/06/27 05:26:04;;;;;;;4.70;1.92;;;18.50;99.90;;;;;;4998355;28;20026;-70
2023/06/27 05:28:30;;;;;;;5.80;2.10;;;18.40;99.90;;;;;;4997221;28;20026;-70
2023/06/27 05:30:57;;;;;;;4.38;1.70;;;18.40;99.90;;;;;;4997194;28;20030;-70
2023/06/27 05:33:22;;;;;;;3.58;1.67;;;18.50;99.90;;;;;;4996886;28;20058;-69
2023/06/27 05:35:48;;;;;;;3.08;1.50;;;18.50;99.90;;;;;;4997234;28;20041;-70
2023/06/27 05:38:13;;;;;;;3.25;1.50;;;18.40;99.90;;;;;;4997303;28;20053;-70
2023/06/27 05:40:39;;;;;;;3.30;1.60;;;18.30;99.90;;;;;;4997958;28;20026;-70
2023/06/27 05:43:04;;;;;;;2.88;1.63;;;18.20;99.90;;;;;;4996925;28;20045;-70
2023/06/27 05:45:30;;;;;;;8.07;2.33;;;18.10;99.90;;;;;;4996884;28;20082;-70
2023/06/27 05:47:55;;;;;;;3.38;1.60;;;17.90;99.90;;;;;;4997854;28;20041;-70
2023/06/27 05:50:21;;;;;;;6.05;1.60;;;17.90;99.90;;;;;;4996876;28;20025;-70
2023/06/27 05:52:47;;;;;;;3.05;1.73;;;17.80;99.90;;;;;;4997675;28;20078;-70
2023/06/27 05:55:12;;;;;;;6.85;2.20;;;17.80;99.90;;;;;;4996655;28;20034;-70
2023/06/27 05:57:38;;;;;;;6.00;1.95;;;17.90;99.90;;;;;;4997814;28;20034;-70
2023/06/27 06:00:05;;;;;;;6.03;1.60;;;18.00;99.90;;;;;;4996616;28;20077;-70
2023/06/27 06:02:31;;;;;;;4.22;1.73;;;18.10;99.90;;;;;;4997413;28;20078;-70
2023/06/27 06:04:57;;;;;;;4.50;1.85;;;18.10;99.90;;;;;;4996710;28;20109;-70
2023/06/27 06:07:23;;;;;;;4.07;1.50;;;18.10;99.90;;;;;;4996781;28;20026;-70
2023/06/27 06:09:49;;;;;;;3.38;1.80;;;18.00;99.90;;;;;;4996553;28;20014;-70
2023/06/27 06:13:57;;;;;;;5.25;1.80;;;18.00;99.90;;;;;;5095368;28;20421;-69
2023/06/27 06:16:23;;;;;;;4.35;1.63;;;17.90;99.90;;;;;;5093458;28;20021;-69
2023/06/27 06:18:49;;;;;;;4.75;1.80;;;17.80;99.90;;;;;;5093622;28;20056;-69
2023/06/27 06:21:15;;;;;;;5.32;1.48;;;17.70;99.90;;;;;;5093692;28;20032;-69
2023/06/27 06:23:41;;;;;;;4.43;1.83;;;17.70;99.90;;;;;;5094235;28;20032;-69
2023/06/27 06:26:06;;;;;;;4.88;1.58;;;17.60;99.90;;;;;;5093300;28;20024;-69
2023/06/27 06:28:32;;;;;;;4.22;1.35;;;17.70;99.90;;;;;;5093246;28;20107;-69
2023/06/27 06:30:57;;;;;;;6.38;1.88;;;17.80;99.90;;;;;;5093961;28;20047;-70
2023/06/27 06:33:24;;;;;;;2.97;1.52;;;18.00;99.90;;;;;;5093819;28;20021;-70
2023/06/27 06:35:49;;;;;;;6.70;1.83;;;18.00;99.90;;;;;;5093226;28;20021;-69
2023/06/27 06:38:15;;;;;;;5.53;1.85;;;18.10;99.90;;;;;;5093447;28;20020;-70
2023/06/27 06:40:40;;;;;;;8.95;2.00;;;18.20;99.90;;;;;;5093920;28;20082;-69
2023/06/27 06:43:06;;;;;;;3.38;1.58;;;18.30;99.90;;;;;;5093006;28;20073;-69
2023/06/27 06:45:31;;;;;;;7.72;1.48;;;18.30;99.90;;;;;;5093997;28;20028;-70
2023/06/27 06:47:59;;;;;;;2.63;1.67;;;18.40;99.90;;;;;;5093562;28;20020;-70
2023/06/27 06:50:24;;;;;;;8.23;1.75;;;18.50;99.90;;;;;;5093016;28;20085;-69
2023/06/27 06:52:50;;;;;;;5.40;1.50;;;18.50;99.90;;;;;;5093882;28;20043;-69
2023/06/27 06:55:15;;;;;;;6.22;1.67;;;18.40;99.90;;;;;;5093818;28;20129;-70
2023/06/27 06:57:41;;;;;;;12.75;1.88;;;18.60;99.90;;;;;;5093551;28;20046;-69
2023/06/27 07:00:07;;;;;;;8.25;1.45;;;18.80;99.90;;;;;;5092975;28;20024;-70
2023/06/27 07:02:33;;;;;;;9.93;1.73;;;19.00;99.90;;;;;;5092837;28;20032;-69
2023/06/27 07:04:58;;;;;;;6.75;1.48;;;19.10;99.90;;;;;;5093023;28;20069;-69
2023/06/27 07:07:24;;;;;;;6.75;1.45;;;19.10;99.90;;;;;;5093768;28;20024;-69
2023/06/27 07:09:49;;;;;;;10.77;2.38;;;19.20;99.90;;;;;;5092868;28;20086;-69
2023/06/27 07:12:15;;;;;;;4.65;1.73;;;19.30;99.90;;;;;;5092208;28;20032;-69
2023/06/27 07:14:40;;;;;;;9.00;1.80;;;19.30;99.90;;;;;;5093607;28;20027;-69
2023/06/27 07:17:06;;;;;;;7.40;1.50;;;19.20;99.90;;;;;;5092351;28;20037;-69
2023/06/27 07:19:31;;;;;;;5.07;1.98;;;19.30;99.90;;;;;;5092585;28;20043;-69
2023/06/27 07:21:57;;;;;;;6.13;1.58;;;19.20;99.90;;;;;;5093192;28;20024;-69
2023/06/27 07:24:23;;;;;;;5.07;2.15;;;19.20;99.90;;;;;;5084208;28;20051;-69
2023/06/27 07:26:48;;;;;;;3.95;1.58;;;19.30;99.90;;;;;;5078921;28;20025;-69
2023/06/27 07:29:14;;;;;;;6.22;1.77;;;19.30;99.90;;;;;;5078742;28;20033;-69
2023/06/27 07:31:39;;;;;;;5.47;1.55;;;19.40;99.90;;;;;;5078602;28;20074;-70
2023/06/27 07:34:05;;;;;;;2.10;1.55;;;19.50;99.90;;;;;;5078456;28;20020;-70
2023/06/27 07:36:30;;;;;;;4.30;2.03;;;19.60;99.90;;;;;;5078718;28;20021;-70
2023/06/27 07:38:58;;;;;;;6.72;1.90;;;19.70;99.90;;;;;;5078562;28;20021;-70
2023/06/27 07:41:24;;;;;;;3.45;1.65;;;19.70;99.90;;;;;;5079593;28;20020;-70
2023/06/27 07:43:50;;;;;;;7.97;1.60;;;19.80;99.90;;;;;;5078387;28;20052;-71
2023/06/27 07:46:15;;;;;;;4.72;1.63;;;19.90;99.90;;;;;;5079391;28;20060;-71
2023/06/27 07:48:41;;;;;;;3.38;1.55;;;20.00;99.90;;;;;;5079094;28;20044;-71
2023/06/27 07:51:06;;;;;;;5.25;2.03;;;20.10;99.90;;;;;;5078343;28;20024;-71
2023/06/27 07:53:32;;;;;;;9.15;2.30;;;20.20;99.90;;;;;;5078476;28;20100;-71
2023/06/27 07:55:57;;;;;;;3.47;1.77;;;20.30;99.90;;;;;;5078302;28;20084;-71
2023/06/27 07:58:23;;;;;;;7.82;1.80;;;20.30;99.90;;;;;;5078358;28;20024;-72
2023/06/27 08:00:49;;;;;;;6.78;1.83;;;20.30;99.90;;;;;;5078098;28;20023;-71
2023/06/27 08:03:14;;;;;;;6.10;1.58;;;20.20;99.90;;;;;;5077904;28;20116;-71
2023/06/27 08:05:40;;;;;;;5.57;2.08;;;20.20;99.90;;;;;;5078734;28;20024;-71
2023/06/27 08:08:05;;;;;;;3.20;1.50;;;20.20;99.90;;;;;;5078218;28;20021;-71
2023/06/27 08:10:31;;;;;;;3.30;1.48;;;20.20;99.90;;;;;;5077993;28;20033;-72
2023/06/27 08:12:56;;;;;;;6.43;1.65;;;20.30;99.90;;;;;;5078765;28;20089;-72
2023/06/27 08:15:22;;;;;;;10.55;2.00;;;20.50;99.90;;;;;;5078717;28;20025;-71
2023/06/27 08:17:48;;;;;;;4.20;1.50;;;20.60;99.90;;;;;;5077837;28;20027;-71
2023/06/27 08:20:14;;;;;;;9.45;2.22;;;20.70;99.90;;;;;;5079005;28;20051;-71
2023/06/27 08:22:39;;;;;;;5.05;1.83;;;20.70;99.90;;;;;;5078518;28;20028;-71
2023/06/27 08:25:06;;;;;;;3.30;1.50;;;20.70;99.90;;;;;;5077709;28;20116;-71
2023/06/27 08:27:31;;;;;;;7.80;1.98;;;20.70;99.90;;;;;;5078436;28;20024;-72
2023/06/27 08:29:57;;;;;;;3.97;2.22;;;20.70;99.90;;;;;;5078684;28;20094;-72
2023/06/27 08:32:23;;;;;;;7.13;1.90;;;20.90;99.90;;;;;;5078166;28;20031;-71
2023/06/27 08:34:48;;;;;;;4.72;1.45;;;21.00;99.90;;;;;;5077237;28;20051;-71
2023/06/27 08:37:14;;;;;;;3.22;1.52;;;21.00;99.90;;;;;;5076693;28;20013;-71
2023/06/27 08:39:40;;;;;;;4.40;1.67;;;21.20;99.90;;;;;;5078214;28;20024;-72
2023/06/27 08:42:06;;;;;;;4.75;1.60;;;21.30;99.90;;;;;;5077292;28;20044;-72
2023/06/27 08:44:31;;;;;;;6.80;2.40;;;21.50;99.90;;;;;;5077050;28;20031;-71
2023/06/27 08:47:03;;;;;;;5.60;1.73;;;21.60;99.90;;;;;;5077182;28;20029;-71
2023/06/27 08:49:30;;;;;;;;;;;21.50;99.90;;;;;;5078458;28;20145;-71
2023/06/27 08:51:57;;;;;;;5.65;1.85;;;21.60;99.90;;;;;;5077884;28;19912;-71
2023/06/27 08:54:39;;;;;;;6.72;1.60;;;21.70;99.90;;;;;;5077865;28;20150;-71
2023/06/27 08:57:06;;;;;;;6.78;2.35;;;21.90;99.90;;;;;;5078187;28;20025;-71
2023/06/27 08:59:37;;;;;;;3.83;1.65;;;22.00;99.90;;;;;;5076844;28;20021;-71
2023/06/27 09:02:03;;;;;;;3.53;1.70;;;22.10;99.90;;;;;;5077522;28;20105;-73
2023/06/27 09:04:36;;;;;;;6.00;1.42;;;22.20;99.90;;;;;;5076972;28;20025;-71
2023/06/27 09:07:04;;;;;;;9.02;2.10;;;22.30;99.90;;;;;;5077668;28;20028;-72
2023/06/27 09:09:30;;;;;;;5.43;2.50;;;22.50;99.90;;;;;;5077212;28;20027;-71
2023/06/27 09:12:00;;;;;;;2.33;1.23;;;22.70;99.90;;;;;;5077686;28;20123;-71
2023/06/27 09:14:25;;;;;;;3.03;1.48;;;22.60;99.90;;;;;;5076947;28;20016;-71
2023/06/27 09:16:51;;;;;;;11.40;1.58;;;22.70;99.90;;;;;;5077553;28;20016;-72
2023/06/27 09:19:17;;;;;;;5.03;2.10;;;22.60;99.90;;;;;;5077460;28;20024;-71
2023/06/27 09:21:47;;;;;;;5.20;1.63;;;22.60;99.90;;;;;;5076708;28;20017;-72
2023/06/27 09:24:16;;;;;;;3.65;1.52;;;22.40;99.90;;;;;;5077308;28;20027;-71
2023/06/27 09:26:42;;;;;;;4.32;1.80;;;22.40;99.90;;;;;;5077339;28;20024;-71
2023/06/27 09:29:08;;;;;;;4.28;1.80;;;22.60;99.90;;;;;;5076432;28;20028;-71
2023/06/27 09:31:34;;;;;;;2.50;1.40;;;22.70;99.90;;;;;;5076356;28;20046;-71
2023/06/27 09:34:18;;;;;;;6.25;1.67;;;22.80;99.90;;;;;;5076295;28;20157;-71
2023/06/27 09:36:43;;;;;;;3.53;1.30;;;22.90;99.90;;;;;;5076401;28;20027;-71
2023/06/27 09:39:10;;;;;;;4.03;1.60;;;23.10;99.90;;;;;;5076289;28;20115;-71
2023/06/27 09:41:47;;;;;;;5.75;2.00;;;23.00;99.90;;;;;;5076996;28;20052;-71
2023/06/27 09:44:25;;;;;;;2.40;1.58;;;22.70;99.90;;;;;;5076150;28;20027;-71
2023/06/27 09:46:55;;;;;;;13.48;2.25;;;22.80;99.90;;;;;;5076436;28;20054;-72
2023/06/27 09:49:22;;;;;;;4.47;1.77;;;22.90;99.90;;;;;;5076589;28;20069;-71
2023/06/27 09:51:53;;;;;;;5.25;1.75;;;23.00;99.90;;;;;;5076772;28;20036;-72
2023/06/27 09:54:21;;;;;;;;;;;23.10;99.90;;;;;;5077396;28;20100;-71
2023/06/27 09:56:51;;;;;;;4.85;1.40;;;23.10;99.90;;;;;;5076122;28;19911;-72
2023/06/27 09:59:19;;;;;;;5.63;1.47;;;23.10;99.90;;;;;;5076038;28;20127;-71
2023/06/27 10:01:45;;;;;;;2.90;1.50;;;23.10;99.90;;;;;;5075928;28;20032;-72
2023/06/27 10:04:11;;;;;;;7.22;1.70;;;23.20;99.90;;;;;;5076780;28;20017;-71
2023/06/27 10:06:37;;;;;;;4.97;1.55;;;23.10;99.90;;;;;;5076012;28;20021;-72
2023/06/27 10:09:03;;;;;;;2.17;1.05;;;23.40;99.90;;;;;;5076369;28;20031;-72
2023/06/27 10:11:29;;;;;;;2.28;1.25;;;23.60;99.90;;;;;;5076051;28;20024;-72
2023/06/27 10:13:55;;;;;;;7.32;1.52;;;23.70;99.90;;;;;;5075879;28;20029;-72
2023/06/27 10:16:21;;;;;;;3.22;1.20;;;23.70;99.90;;;;;;5076887;28;20031;-72
2023/06/27 10:18:49;;;;;;;4.38;1.52;;;23.70;99.90;;;;;;5075996;28;20055;-71
2023/06/27 10:21:16;;;;;;;5.20;1.50;;;23.90;99.90;;;;;;5076376;28;20040;-71
2023/06/27 10:23:46;;;;;;;4.55;1.80;;;23.90;99.90;;;;;;5075687;28;20024;-72
2023/06/27 10:26:12;;;;;;;2.03;1.02;;;23.90;99.40;;;;;;5076723;28;20028;-72
2023/06/27 10:28:37;;;;;;;7.82;1.77;;;23.80;96.60;;;;;;5075780;28;20016;-72
2023/06/27 10:31:04;;;;;;;4.32;1.17;;;23.70;96.50;;;;;;5075880;28;20032;-72
2023/06/27 10:33:32;;;;;;;3.95;1.40;;;23.70;95.80;;;;;;5075865;22;20034;-72
2023/06/27 10:36:02;;;;;;;2.25;1.33;;;23.80;95.70;;;;;;5037318;28;20079;-72
2023/06/27 10:38:39;;;;;;;4.15;1.33;;;23.80;95.70;;;;;;5036155;28;20030;-71
2023/06/27 10:41:06;;;;;;;2.17;1.00;;;23.80;95.60;;;;;;5036243;28;20021;-71
2023/06/27 10:43:36;;;;;;;3.50;1.30;;;24.00;95.50;;;;;;5045453;28;20028;-71
2023/06/27 10:46:20;;;;;;;4.15;1.20;;;23.90;94.80;;;;;;5055590;28;20027;-71
2023/06/27 10:49:07;;;;;;;5.85;1.30;;;24.00;94.10;;;;;;5056494;28;20029;-71
2023/06/27 10:51:34;;;;;;;3.95;1.45;;;23.90;93.80;;;;;;5056694;28;20025;-71
2023/06/27 10:54:11;;;;;;;2.25;0.98;;;23.80;94.00;;;;;;5072176;28;20052;-71
2023/06/27 10:56:59;;;;;;;5.47;1.33;;;23.80;94.10;;;;;;5055514;28;20025;-71
2023/06/27 10:59:24;;;;;;;5.85;1.60;;;23.90;93.30;;;;;;5058197;28;20051;-71
2023/06/27 11:02:02;;;;;;;2.42;0.90;;;23.90;92.90;;;;;;5076038;28;20021;-71
2023/06/27 11:04:42;;;;;;;2.30;1.10;;;24.10;92.80;;;;;;5075919;28;20029;-71
2023/06/27 11:07:10;;;;;;;3.17;1.10;;;24.20;92.10;;;;;;5059190;28;20111;-71
2023/06/27 11:09:36;;;;;;;4.85;1.15;;;24.40;92.00;;;;;;5060290;28;20028;-71
2023/06/27 11:12:11;;;;;;;3.33;0.98;;;24.60;92.10;;;;;;5060252;28;20032;-71
2023/06/27 11:14:41;;;;;;;4.78;1.15;;;24.70;91.90;;;;;;5059090;28;20205;-71
2023/06/27 11:17:07;;;;;;;3.97;1.00;;;24.80;92.10;;;;;;5076417;28;20068;-71
2023/06/27 11:19:38;;;;;;;5.15;1.73;;;24.90;91.70;;;;;;5075983;28;20029;-71
2023/06/27 11:22:04;;;;;;;4.03;1.50;;;24.90;90.90;;;;;;5076319;28;20036;-71
2023/06/27 11:24:30;;;;;;;3.65;1.73;;;24.90;90.90;;;;;;5076281;28;20067;-71
2023/06/27 11:26:57;;;;;;;8.07;2.03;;;24.60;91.30;;;;;;5075566;28;20013;-71
2023/06/27 11:29:23;;;;;;;4.50;1.52;;;24.30;90.90;;;;;;5075507;28;20021;-71
2023/06/27 11:31:49;;;;;;;4.55;1.90;;;24.10;91.30;;;;;;5075255;28;20028;-71
2023/06/27 11:34:16;;;;;;;5.25;1.30;;;23.80;91.80;;;;;;5074974;28;20093;-71
2023/06/27 11:36:42;;;;;;;11.25;1.55;;;23.90;91.90;;;;;;5075969;28;20025;-71
2023/06/27 11:39:15;;;;;;;4.05;1.38;;;23.90;91.40;;;;;;5075514;28;20120;-71
2023/06/27 11:41:42;;;;;;;3.30;1.40;;;24.10;91.80;;;;;;5059202;28;20032;-71
2023/06/27 11:44:12;;;;;;;2.83;1.17;;;24.30;92.10;;;;;;5075235;28;20108;-71
2023/06/27 11:46:47;;;;;;;3.47;1.10;;;24.50;91.90;;;;;;5059391;28;20017;-71
2023/06/27 11:49:14;;;;;;;4.18;0.90;;;24.50;91.20;;;;;;5059104;28;20027;-71
2023/06/27 11:51:40;;;;;;;4.20;1.83;;;24.70;91.10;;;;;;5075102;28;20021;-71
2023/06/27 11:54:07;;;;;;;3.67;1.52;;;24.80;91.00;;;;;;5074914;28;20033;-71
2023/06/27 11:56:38;;;;;;;2.08;1.30;;;25.00;88.80;;;;;;5075335;28;20025;-71
2023/06/27 11:59:04;;;;;;;3.03;1.40;;;24.70;89.50;;;;;;5059035;28;20120;-71
2023/06/27 12:01:33;;;;;;;3.58;1.20;;;24.40;90.80;;;;;;5074916;28;20028;-72
2023/06/27 12:03:59;;;;;;;2.35;1.00;;;24.70;90.10;;;;;;5074764;28;20025;-72
2023/06/27 12:06:27;;;;;;;5.45;1.30;;;24.90;88.90;;;;;;5075058;28;20025;-72
2023/06/27 12:08:53;;;;;;;2.25;1.25;;;25.10;88.70;;;;;;5075170;28;20021;-71
2023/06/27 12:11:27;;;;;;;1.52;0.95;;;25.10;84.90;;;;;;5075182;28;20032;-71
2023/06/27 12:13:53;;;;;;;4.50;1.30;;;25.10;83.20;;;;;;5058365;28;20029;-71
2023/06/27 12:16:29;;;;;;;1.73;1.10;;;25.00;84.60;;;;;;5074511;28;20043;-72
2023/06/27 12:19:03;;;;;;;3.63;1.10;;;25.10;85.00;;;;;;5057816;28;20029;-72
2023/06/27 12:21:29;;;;;;;3.17;1.45;;;25.40;84.20;;;;;;5057944;28;20052;-72
2023/06/27 12:23:54;;;;;;;3.60;1.30;;;25.60;83.70;;;;;;5074346;28;20083;-72
2023/06/27 12:26:20;;;;;;;3.35;1.38;;;25.80;83.20;;;;;;5074549;28;20079;-72
2023/06/27 12:28:59;;;;;;;2.60;1.30;;;26.00;82.40;;;;;;5074459;28;20021;-72
2023/06/27 12:31:26;;;;;;;4.70;1.30;;;26.10;82.90;;;;;;5075066;28;20044;-72
2023/06/27 12:33:52;;;;;;;1.90;1.60;;;26.10;84.10;;;;;;5074193;28;20106;-72
2023/06/27 12:36:18;;;;;;;3.65;1.13;;;25.90;84.70;;;;;;5074534;28;20029;-72
2023/06/27 12:38:44;;;;;;;4.05;1.58;;;26.10;81.70;;;;;;5057441;28;20027;-72
2023/06/27 12:41:10;;;;;;;6.97;1.40;;;26.30;80.00;;;;;;5057362;28;20021;-72
2023/06/27 12:43:35;;;;;;;4.32;0.90;;;26.60;79.00;;;;;;5075077;28;20025;-71
2023/06/27 12:46:02;;;;;;;6.13;1.55;;;26.50;79.50;;;;;;5058487;28;20072;-71
2023/06/27 12:48:28;;;;;;;3.60;1.25;;;26.60;78.10;;;;;;5073900;28;20056;-71